<?xml version="1.0" encoding="UTF-8" standalone="no" ?>
<gpx xmlns="http://www.topografix.com/GPX/1/1" xmlns:xsi="http://www.w3.org/2001/XMLSchema-instance" xsi:schemaLocation="http://www.topografix.com/GPX/1/1 http://www.topografix.com/GPX/1/1/gpx.xsd" version="1.1" creator="VisuGPX - https://www.visugpx.com">
  <metadata>
    <name>Course à pied dans l'après-midi</name>
  </metadata>
  <trk>
    <name><![CDATA[Course à pied dans l'après-midi_1]]></name>
    <trkseg>
      <trkpt lat="48.745" lon="7.1897">
        <ele>352</ele>
        <time>2024-01-20T13:31:16Z</time>
      </trkpt>
      <trkpt lat="48.74497" lon="7.18971">
        <ele>352.1</ele>
        <time>2024-01-20T13:31:18Z</time>
      </trkpt>
      <trkpt lat="48.74485" lon="7.18993">
        <ele>352.3</ele>
        <time>2024-01-20T13:31:28Z</time>
      </trkpt>
      <trkpt lat="48.74486" lon="7.18997">
        <ele>352.3</ele>
        <time>2024-01-20T13:31:30Z</time>
      </trkpt>
      <trkpt lat="48.74488" lon="7.18999">
        <ele>352.2</ele>
        <time>2024-01-20T13:31:32Z</time>
      </trkpt>
      <trkpt lat="48.74501" lon="7.18976">
        <ele>351.9</ele>
        <time>2024-01-20T13:31:40Z</time>
      </trkpt>
      <trkpt lat="48.74502" lon="7.18974">
        <ele>351.8</ele>
        <time>2024-01-20T13:31:41Z</time>
      </trkpt>
      <trkpt lat="48.74504" lon="7.18968">
        <ele>351.7</ele>
        <time>2024-01-20T13:32:12Z</time>
      </trkpt>
      <trkpt lat="48.74504" lon="7.18968">
        <ele>351.9</ele>
        <time>2024-01-20T13:32:13Z</time>
      </trkpt>
      <trkpt lat="48.74487" lon="7.18985">
        <ele>352.3</ele>
        <time>2024-01-20T13:32:22Z</time>
      </trkpt>
      <trkpt lat="48.74482" lon="7.19012">
        <ele>352.1</ele>
        <time>2024-01-20T13:32:31Z</time>
      </trkpt>
      <trkpt lat="48.74478" lon="7.19041">
        <ele>351.7</ele>
        <time>2024-01-20T13:32:39Z</time>
      </trkpt>
      <trkpt lat="48.74473" lon="7.19069">
        <ele>351.1</ele>
        <time>2024-01-20T13:32:48Z</time>
      </trkpt>
      <trkpt lat="48.74467" lon="7.1909">
        <ele>350.6</ele>
        <time>2024-01-20T13:32:58Z</time>
      </trkpt>
      <trkpt lat="48.74453" lon="7.19067">
        <ele>351.9</ele>
        <time>2024-01-20T13:33:11Z</time>
      </trkpt>
      <trkpt lat="48.74442" lon="7.19044">
        <ele>352.8</ele>
        <time>2024-01-20T13:33:18Z</time>
      </trkpt>
      <trkpt lat="48.74432" lon="7.19018">
        <ele>353.6</ele>
        <time>2024-01-20T13:33:26Z</time>
      </trkpt>
      <trkpt lat="48.74427" lon="7.18991">
        <ele>353.8</ele>
        <time>2024-01-20T13:33:33Z</time>
      </trkpt>
      <trkpt lat="48.7442" lon="7.18963">
        <ele>353.9</ele>
        <time>2024-01-20T13:33:40Z</time>
      </trkpt>
      <trkpt lat="48.74414" lon="7.18937">
        <ele>354.2</ele>
        <time>2024-01-20T13:33:46Z</time>
      </trkpt>
      <trkpt lat="48.74405" lon="7.18909">
        <ele>354.4</ele>
        <time>2024-01-20T13:33:53Z</time>
      </trkpt>
      <trkpt lat="48.74397" lon="7.18883">
        <ele>354.4</ele>
        <time>2024-01-20T13:33:59Z</time>
      </trkpt>
      <trkpt lat="48.74393" lon="7.18869">
        <ele>354.3</ele>
        <time>2024-01-20T13:34:05Z</time>
      </trkpt>
      <trkpt lat="48.74405" lon="7.18848">
        <ele>353.5</ele>
        <time>2024-01-20T13:34:13Z</time>
      </trkpt>
      <trkpt lat="48.74409" lon="7.18818">
        <ele>351.6</ele>
        <time>2024-01-20T13:34:20Z</time>
      </trkpt>
      <trkpt lat="48.74417" lon="7.1879">
        <ele>349.3</ele>
        <time>2024-01-20T13:34:27Z</time>
      </trkpt>
      <trkpt lat="48.74427" lon="7.18768">
        <ele>347.3</ele>
        <time>2024-01-20T13:34:34Z</time>
      </trkpt>
      <trkpt lat="48.74436" lon="7.18741">
        <ele>345</ele>
        <time>2024-01-20T13:34:41Z</time>
      </trkpt>
      <trkpt lat="48.74442" lon="7.18714">
        <ele>343.5</ele>
        <time>2024-01-20T13:34:47Z</time>
      </trkpt>
      <trkpt lat="48.74453" lon="7.18686">
        <ele>342.9</ele>
        <time>2024-01-20T13:34:54Z</time>
      </trkpt>
      <trkpt lat="48.74457" lon="7.18656">
        <ele>343</ele>
        <time>2024-01-20T13:35:01Z</time>
      </trkpt>
      <trkpt lat="48.74462" lon="7.18627">
        <ele>342.3</ele>
        <time>2024-01-20T13:35:08Z</time>
      </trkpt>
      <trkpt lat="48.74467" lon="7.18599">
        <ele>340.6</ele>
        <time>2024-01-20T13:35:14Z</time>
      </trkpt>
      <trkpt lat="48.74471" lon="7.18571">
        <ele>338.4</ele>
        <time>2024-01-20T13:35:21Z</time>
      </trkpt>
      <trkpt lat="48.74487" lon="7.18561">
        <ele>337.8</ele>
        <time>2024-01-20T13:35:33Z</time>
      </trkpt>
      <trkpt lat="48.74506" lon="7.18553">
        <ele>338.1</ele>
        <time>2024-01-20T13:35:41Z</time>
      </trkpt>
      <trkpt lat="48.74525" lon="7.18547">
        <ele>337.4</ele>
        <time>2024-01-20T13:35:48Z</time>
      </trkpt>
      <trkpt lat="48.74542" lon="7.18558">
        <ele>338.4</ele>
        <time>2024-01-20T13:35:55Z</time>
      </trkpt>
      <trkpt lat="48.74562" lon="7.18551">
        <ele>336.1</ele>
        <time>2024-01-20T13:36:01Z</time>
      </trkpt>
      <trkpt lat="48.7458" lon="7.18546">
        <ele>334.3</ele>
        <time>2024-01-20T13:36:08Z</time>
      </trkpt>
      <trkpt lat="48.74582" lon="7.18548">
        <ele>334</ele>
        <time>2024-01-20T13:36:11Z</time>
      </trkpt>
      <trkpt lat="48.74589" lon="7.18577">
        <ele>335.1</ele>
        <time>2024-01-20T13:36:18Z</time>
      </trkpt>
      <trkpt lat="48.7459" lon="7.18607">
        <ele>336.5</ele>
        <time>2024-01-20T13:36:25Z</time>
      </trkpt>
      <trkpt lat="48.7459" lon="7.18637">
        <ele>338.1</ele>
        <time>2024-01-20T13:36:32Z</time>
      </trkpt>
      <trkpt lat="48.74598" lon="7.18665">
        <ele>339.4</ele>
        <time>2024-01-20T13:36:39Z</time>
      </trkpt>
      <trkpt lat="48.74606" lon="7.18692">
        <ele>340.8</ele>
        <time>2024-01-20T13:36:47Z</time>
      </trkpt>
      <trkpt lat="48.74615" lon="7.18716">
        <ele>340.9</ele>
        <time>2024-01-20T13:36:54Z</time>
      </trkpt>
      <trkpt lat="48.74615" lon="7.1872">
        <ele>341.1</ele>
        <time>2024-01-20T13:36:57Z</time>
      </trkpt>
      <trkpt lat="48.74626" lon="7.18742">
        <ele>341</ele>
        <time>2024-01-20T13:37:07Z</time>
      </trkpt>
      <trkpt lat="48.74641" lon="7.1876">
        <ele>339.3</ele>
        <time>2024-01-20T13:37:15Z</time>
      </trkpt>
      <trkpt lat="48.74656" lon="7.18781">
        <ele>337.8</ele>
        <time>2024-01-20T13:37:21Z</time>
      </trkpt>
      <trkpt lat="48.7467" lon="7.18803">
        <ele>338</ele>
        <time>2024-01-20T13:37:28Z</time>
      </trkpt>
      <trkpt lat="48.74676" lon="7.1881">
        <ele>337.8</ele>
        <time>2024-01-20T13:37:31Z</time>
      </trkpt>
      <trkpt lat="48.74689" lon="7.18829">
        <ele>337.4</ele>
        <time>2024-01-20T13:37:36Z</time>
      </trkpt>
      <trkpt lat="48.747" lon="7.18854">
        <ele>336.3</ele>
        <time>2024-01-20T13:37:42Z</time>
      </trkpt>
      <trkpt lat="48.74715" lon="7.18875">
        <ele>334.9</ele>
        <time>2024-01-20T13:37:48Z</time>
      </trkpt>
      <trkpt lat="48.74729" lon="7.18894">
        <ele>333.3</ele>
        <time>2024-01-20T13:37:54Z</time>
      </trkpt>
      <trkpt lat="48.74741" lon="7.18915">
        <ele>332.5</ele>
        <time>2024-01-20T13:38:02Z</time>
      </trkpt>
      <trkpt lat="48.74741" lon="7.18919">
        <ele>332.4</ele>
        <time>2024-01-20T13:38:03Z</time>
      </trkpt>
      <trkpt lat="48.74736" lon="7.18946">
        <ele>332</ele>
        <time>2024-01-20T13:38:13Z</time>
      </trkpt>
      <trkpt lat="48.74725" lon="7.18969">
        <ele>332.2</ele>
        <time>2024-01-20T13:38:20Z</time>
      </trkpt>
      <trkpt lat="48.74715" lon="7.18994">
        <ele>334.7</ele>
        <time>2024-01-20T13:38:27Z</time>
      </trkpt>
      <trkpt lat="48.74703" lon="7.19018">
        <ele>337.8</ele>
        <time>2024-01-20T13:38:34Z</time>
      </trkpt>
      <trkpt lat="48.74695" lon="7.19045">
        <ele>339.2</ele>
        <time>2024-01-20T13:38:41Z</time>
      </trkpt>
      <trkpt lat="48.7469" lon="7.19072">
        <ele>339.5</ele>
        <time>2024-01-20T13:38:48Z</time>
      </trkpt>
      <trkpt lat="48.74688" lon="7.19099">
        <ele>337.2</ele>
        <time>2024-01-20T13:38:56Z</time>
      </trkpt>
      <trkpt lat="48.74691" lon="7.19125">
        <ele>333.2</ele>
        <time>2024-01-20T13:39:08Z</time>
      </trkpt>
      <trkpt lat="48.74691" lon="7.19123">
        <ele>333.9</ele>
        <time>2024-01-20T13:39:10Z</time>
      </trkpt>
      <trkpt lat="48.74681" lon="7.191">
        <ele>337.8</ele>
        <time>2024-01-20T13:39:18Z</time>
      </trkpt>
      <trkpt lat="48.74663" lon="7.19083">
        <ele>341.3</ele>
        <time>2024-01-20T13:39:25Z</time>
      </trkpt>
      <trkpt lat="48.74645" lon="7.19074">
        <ele>343.6</ele>
        <time>2024-01-20T13:39:31Z</time>
      </trkpt>
      <trkpt lat="48.74628" lon="7.19063">
        <ele>344.9</ele>
        <time>2024-01-20T13:39:37Z</time>
      </trkpt>
      <trkpt lat="48.74611" lon="7.19049">
        <ele>345.3</ele>
        <time>2024-01-20T13:39:43Z</time>
      </trkpt>
      <trkpt lat="48.74594" lon="7.19033">
        <ele>345.1</ele>
        <time>2024-01-20T13:39:49Z</time>
      </trkpt>
      <trkpt lat="48.74578" lon="7.19019">
        <ele>345.6</ele>
        <time>2024-01-20T13:39:55Z</time>
      </trkpt>
      <trkpt lat="48.74562" lon="7.19006">
        <ele>346.5</ele>
        <time>2024-01-20T13:40:01Z</time>
      </trkpt>
      <trkpt lat="48.74544" lon="7.18996">
        <ele>348.2</ele>
        <time>2024-01-20T13:40:08Z</time>
      </trkpt>
      <trkpt lat="48.74525" lon="7.18991">
        <ele>350</ele>
        <time>2024-01-20T13:40:15Z</time>
      </trkpt>
      <trkpt lat="48.74512" lon="7.18981">
        <ele>351.2</ele>
        <time>2024-01-20T13:40:21Z</time>
      </trkpt>
      <trkpt lat="48.7451" lon="7.1898">
        <ele>351.2</ele>
        <time>2024-01-20T13:40:22Z</time>
      </trkpt>
      <trkpt lat="48.74509" lon="7.18971">
        <ele>351.5</ele>
        <time>2024-01-20T13:45:49Z</time>
      </trkpt>
      <trkpt lat="48.7451" lon="7.18972">
        <ele>351.4</ele>
        <time>2024-01-20T13:45:50Z</time>
      </trkpt>
      <trkpt lat="48.74511" lon="7.18971">
        <ele>351.4</ele>
        <time>2024-01-20T13:45:52Z</time>
      </trkpt>
      <trkpt lat="48.74513" lon="7.18959">
        <ele>351.3</ele>
        <time>2024-01-20T13:46:03Z</time>
      </trkpt>
      <trkpt lat="48.7451" lon="7.18931">
        <ele>351.6</ele>
        <time>2024-01-20T13:46:11Z</time>
      </trkpt>
      <trkpt lat="48.74511" lon="7.18902">
        <ele>351.3</ele>
        <time>2024-01-20T13:46:17Z</time>
      </trkpt>
      <trkpt lat="48.74506" lon="7.18873">
        <ele>351</ele>
        <time>2024-01-20T13:46:25Z</time>
      </trkpt>
      <trkpt lat="48.74503" lon="7.18844">
        <ele>350.2</ele>
        <time>2024-01-20T13:46:31Z</time>
      </trkpt>
      <trkpt lat="48.74497" lon="7.18813">
        <ele>349.3</ele>
        <time>2024-01-20T13:46:37Z</time>
      </trkpt>
      <trkpt lat="48.74496" lon="7.18784">
        <ele>348.2</ele>
        <time>2024-01-20T13:46:42Z</time>
      </trkpt>
      <trkpt lat="48.74496" lon="7.18753">
        <ele>346.6</ele>
        <time>2024-01-20T13:46:49Z</time>
      </trkpt>
      <trkpt lat="48.74495" lon="7.18723">
        <ele>344.1</ele>
        <time>2024-01-20T13:46:55Z</time>
      </trkpt>
      <trkpt lat="48.74499" lon="7.18694">
        <ele>341.9</ele>
        <time>2024-01-20T13:47:01Z</time>
      </trkpt>
      <trkpt lat="48.74503" lon="7.18666">
        <ele>340.7</ele>
        <time>2024-01-20T13:47:07Z</time>
      </trkpt>
      <trkpt lat="48.74504" lon="7.18638">
        <ele>341.4</ele>
        <time>2024-01-20T13:47:14Z</time>
      </trkpt>
      <trkpt lat="48.74501" lon="7.1862">
        <ele>342</ele>
        <time>2024-01-20T13:47:19Z</time>
      </trkpt>
      <trkpt lat="48.74491" lon="7.18594">
        <ele>341.1</ele>
        <time>2024-01-20T13:47:25Z</time>
      </trkpt>
      <trkpt lat="48.74481" lon="7.1857">
        <ele>338.4</ele>
        <time>2024-01-20T13:47:34Z</time>
      </trkpt>
      <trkpt lat="48.74481" lon="7.18569">
        <ele>338.4</ele>
        <time>2024-01-20T13:47:36Z</time>
      </trkpt>
      <trkpt lat="48.74465" lon="7.18553">
        <ele>336.3</ele>
        <time>2024-01-20T13:48:11Z</time>
      </trkpt>
      <trkpt lat="48.74449" lon="7.18539">
        <ele>335.3</ele>
        <time>2024-01-20T13:48:19Z</time>
      </trkpt>
      <trkpt lat="48.74446" lon="7.18536">
        <ele>335.2</ele>
        <time>2024-01-20T13:48:21Z</time>
      </trkpt>
      <trkpt lat="48.74434" lon="7.1851">
        <ele>334.8</ele>
        <time>2024-01-20T13:48:29Z</time>
      </trkpt>
      <trkpt lat="48.74429" lon="7.18507">
        <ele>335.1</ele>
        <time>2024-01-20T13:48:30Z</time>
      </trkpt>
      <trkpt lat="48.7441" lon="7.18495">
        <ele>335.8</ele>
        <time>2024-01-20T13:48:37Z</time>
      </trkpt>
      <trkpt lat="48.74394" lon="7.18483">
        <ele>335.7</ele>
        <time>2024-01-20T13:48:42Z</time>
      </trkpt>
      <trkpt lat="48.74376" lon="7.18473">
        <ele>335.9</ele>
        <time>2024-01-20T13:48:48Z</time>
      </trkpt>
      <trkpt lat="48.74365" lon="7.1847">
        <ele>336.2</ele>
        <time>2024-01-20T13:48:52Z</time>
      </trkpt>
      <trkpt lat="48.74347" lon="7.18476">
        <ele>337.3</ele>
        <time>2024-01-20T13:48:58Z</time>
      </trkpt>
      <trkpt lat="48.74328" lon="7.18467">
        <ele>338.3</ele>
        <time>2024-01-20T13:49:05Z</time>
      </trkpt>
      <trkpt lat="48.7431" lon="7.18454">
        <ele>339</ele>
        <time>2024-01-20T13:49:12Z</time>
      </trkpt>
      <trkpt lat="48.74294" lon="7.18441">
        <ele>339.7</ele>
        <time>2024-01-20T13:49:18Z</time>
      </trkpt>
      <trkpt lat="48.74278" lon="7.18425">
        <ele>340.2</ele>
        <time>2024-01-20T13:49:26Z</time>
      </trkpt>
      <trkpt lat="48.74265" lon="7.18406">
        <ele>340.3</ele>
        <time>2024-01-20T13:49:32Z</time>
      </trkpt>
      <trkpt lat="48.74247" lon="7.18391">
        <ele>341</ele>
        <time>2024-01-20T13:49:39Z</time>
      </trkpt>
      <trkpt lat="48.7423" lon="7.1838">
        <ele>341.7</ele>
        <time>2024-01-20T13:49:44Z</time>
      </trkpt>
      <trkpt lat="48.74213" lon="7.18363">
        <ele>342</ele>
        <time>2024-01-20T13:49:50Z</time>
      </trkpt>
      <trkpt lat="48.74197" lon="7.18346">
        <ele>342.4</ele>
        <time>2024-01-20T13:49:57Z</time>
      </trkpt>
      <trkpt lat="48.7418" lon="7.18333">
        <ele>342.7</ele>
        <time>2024-01-20T13:50:05Z</time>
      </trkpt>
      <trkpt lat="48.74163" lon="7.18322">
        <ele>343</ele>
        <time>2024-01-20T13:50:13Z</time>
      </trkpt>
      <trkpt lat="48.74158" lon="7.18321">
        <ele>343.1</ele>
        <time>2024-01-20T13:50:14Z</time>
      </trkpt>
      <trkpt lat="48.7414" lon="7.18312">
        <ele>343.4</ele>
        <time>2024-01-20T13:50:21Z</time>
      </trkpt>
      <trkpt lat="48.74122" lon="7.18304">
        <ele>343.5</ele>
        <time>2024-01-20T13:50:30Z</time>
      </trkpt>
      <trkpt lat="48.74119" lon="7.183">
        <ele>343.6</ele>
        <time>2024-01-20T13:50:33Z</time>
      </trkpt>
      <trkpt lat="48.74113" lon="7.18294">
        <ele>343.5</ele>
        <time>2024-01-20T13:50:40Z</time>
      </trkpt>
      <trkpt lat="48.74113" lon="7.18279">
        <ele>343.4</ele>
        <time>2024-01-20T13:50:45Z</time>
      </trkpt>
      <trkpt lat="48.74128" lon="7.18262">
        <ele>343.1</ele>
        <time>2024-01-20T13:50:52Z</time>
      </trkpt>
      <trkpt lat="48.74143" lon="7.1824">
        <ele>342.4</ele>
        <time>2024-01-20T13:51:00Z</time>
      </trkpt>
      <trkpt lat="48.74157" lon="7.18217">
        <ele>341.5</ele>
        <time>2024-01-20T13:51:07Z</time>
      </trkpt>
      <trkpt lat="48.74163" lon="7.18189">
        <ele>340.6</ele>
        <time>2024-01-20T13:51:14Z</time>
      </trkpt>
      <trkpt lat="48.74173" lon="7.18166">
        <ele>339.6</ele>
        <time>2024-01-20T13:51:20Z</time>
      </trkpt>
      <trkpt lat="48.74185" lon="7.18142">
        <ele>338.2</ele>
        <time>2024-01-20T13:51:26Z</time>
      </trkpt>
      <trkpt lat="48.74198" lon="7.18119">
        <ele>336.7</ele>
        <time>2024-01-20T13:51:33Z</time>
      </trkpt>
      <trkpt lat="48.74202" lon="7.18111">
        <ele>336.1</ele>
        <time>2024-01-20T13:51:34Z</time>
      </trkpt>
      <trkpt lat="48.7422" lon="7.18095">
        <ele>335.2</ele>
        <time>2024-01-20T13:51:42Z</time>
      </trkpt>
      <trkpt lat="48.74232" lon="7.18071">
        <ele>334.2</ele>
        <time>2024-01-20T13:51:49Z</time>
      </trkpt>
      <trkpt lat="48.74247" lon="7.18052">
        <ele>333.7</ele>
        <time>2024-01-20T13:51:55Z</time>
      </trkpt>
      <trkpt lat="48.74263" lon="7.18036">
        <ele>333.3</ele>
        <time>2024-01-20T13:52:01Z</time>
      </trkpt>
      <trkpt lat="48.74273" lon="7.18012">
        <ele>332.6</ele>
        <time>2024-01-20T13:52:08Z</time>
      </trkpt>
      <trkpt lat="48.74281" lon="7.17986">
        <ele>332</ele>
        <time>2024-01-20T13:52:15Z</time>
      </trkpt>
      <trkpt lat="48.74286" lon="7.17981">
        <ele>331.9</ele>
        <time>2024-01-20T13:52:16Z</time>
      </trkpt>
      <trkpt lat="48.74303" lon="7.17971">
        <ele>331.8</ele>
        <time>2024-01-20T13:52:23Z</time>
      </trkpt>
      <trkpt lat="48.74322" lon="7.17961">
        <ele>331.7</ele>
        <time>2024-01-20T13:52:29Z</time>
      </trkpt>
      <trkpt lat="48.74329" lon="7.17961">
        <ele>331.7</ele>
        <time>2024-01-20T13:52:30Z</time>
      </trkpt>
      <trkpt lat="48.7434" lon="7.17959">
        <ele>331.7</ele>
        <time>2024-01-20T13:52:35Z</time>
      </trkpt>
      <trkpt lat="48.74356" lon="7.17942">
        <ele>331.5</ele>
        <time>2024-01-20T13:52:40Z</time>
      </trkpt>
      <trkpt lat="48.74371" lon="7.17926">
        <ele>331.3</ele>
        <time>2024-01-20T13:52:46Z</time>
      </trkpt>
      <trkpt lat="48.74387" lon="7.17914">
        <ele>331.3</ele>
        <time>2024-01-20T13:52:55Z</time>
      </trkpt>
      <trkpt lat="48.74404" lon="7.17901">
        <ele>330.9</ele>
        <time>2024-01-20T13:53:02Z</time>
      </trkpt>
      <trkpt lat="48.74421" lon="7.17888">
        <ele>330.1</ele>
        <time>2024-01-20T13:53:10Z</time>
      </trkpt>
      <trkpt lat="48.74437" lon="7.17873">
        <ele>328.9</ele>
        <time>2024-01-20T13:53:18Z</time>
      </trkpt>
      <trkpt lat="48.74453" lon="7.17856">
        <ele>327.4</ele>
        <time>2024-01-20T13:53:25Z</time>
      </trkpt>
      <trkpt lat="48.7447" lon="7.17846">
        <ele>326</ele>
        <time>2024-01-20T13:53:31Z</time>
      </trkpt>
      <trkpt lat="48.7449" lon="7.17842">
        <ele>325.2</ele>
        <time>2024-01-20T13:53:37Z</time>
      </trkpt>
      <trkpt lat="48.74504" lon="7.17839">
        <ele>324.9</ele>
        <time>2024-01-20T13:53:45Z</time>
      </trkpt>
      <trkpt lat="48.74506" lon="7.17836">
        <ele>324.8</ele>
        <time>2024-01-20T13:53:48Z</time>
      </trkpt>
      <trkpt lat="48.74524" lon="7.17841">
        <ele>325.1</ele>
        <time>2024-01-20T13:53:57Z</time>
      </trkpt>
      <trkpt lat="48.74542" lon="7.17842">
        <ele>325</ele>
        <time>2024-01-20T13:54:03Z</time>
      </trkpt>
      <trkpt lat="48.74561" lon="7.17844">
        <ele>324.4</ele>
        <time>2024-01-20T13:54:09Z</time>
      </trkpt>
      <trkpt lat="48.74581" lon="7.17847">
        <ele>323.8</ele>
        <time>2024-01-20T13:54:16Z</time>
      </trkpt>
      <trkpt lat="48.74588" lon="7.1785">
        <ele>323.6</ele>
        <time>2024-01-20T13:54:20Z</time>
      </trkpt>
      <trkpt lat="48.74606" lon="7.1784">
        <ele>322.7</ele>
        <time>2024-01-20T13:54:28Z</time>
      </trkpt>
      <trkpt lat="48.74624" lon="7.17832">
        <ele>321.2</ele>
        <time>2024-01-20T13:54:37Z</time>
      </trkpt>
      <trkpt lat="48.74626" lon="7.17833">
        <ele>321.2</ele>
        <time>2024-01-20T13:54:39Z</time>
      </trkpt>
      <trkpt lat="48.74628" lon="7.17831">
        <ele>320.9</ele>
        <time>2024-01-20T13:54:43Z</time>
      </trkpt>
      <trkpt lat="48.7463" lon="7.17854">
        <ele>321.3</ele>
        <time>2024-01-20T13:55:10Z</time>
      </trkpt>
      <trkpt lat="48.74624" lon="7.1788">
        <ele>321.9</ele>
        <time>2024-01-20T13:55:16Z</time>
      </trkpt>
      <trkpt lat="48.74619" lon="7.17909">
        <ele>321.9</ele>
        <time>2024-01-20T13:55:23Z</time>
      </trkpt>
      <trkpt lat="48.74617" lon="7.17938">
        <ele>322.1</ele>
        <time>2024-01-20T13:55:30Z</time>
      </trkpt>
      <trkpt lat="48.74614" lon="7.17968">
        <ele>322.9</ele>
        <time>2024-01-20T13:55:37Z</time>
      </trkpt>
      <trkpt lat="48.74608" lon="7.17994">
        <ele>324.1</ele>
        <time>2024-01-20T13:55:45Z</time>
      </trkpt>
      <trkpt lat="48.74605" lon="7.18008">
        <ele>324.7</ele>
        <time>2024-01-20T13:55:50Z</time>
      </trkpt>
      <trkpt lat="48.74606" lon="7.18024">
        <ele>324.6</ele>
        <time>2024-01-20T13:55:55Z</time>
      </trkpt>
      <trkpt lat="48.74604" lon="7.18053">
        <ele>325.5</ele>
        <time>2024-01-20T13:56:04Z</time>
      </trkpt>
      <trkpt lat="48.74608" lon="7.1808">
        <ele>326</ele>
        <time>2024-01-20T13:56:12Z</time>
      </trkpt>
      <trkpt lat="48.74609" lon="7.18108">
        <ele>325.9</ele>
        <time>2024-01-20T13:56:20Z</time>
      </trkpt>
      <trkpt lat="48.74611" lon="7.18139">
        <ele>327.2</ele>
        <time>2024-01-20T13:56:27Z</time>
      </trkpt>
      <trkpt lat="48.74612" lon="7.18166">
        <ele>327.5</ele>
        <time>2024-01-20T13:56:33Z</time>
      </trkpt>
      <trkpt lat="48.74614" lon="7.18193">
        <ele>327.6</ele>
        <time>2024-01-20T13:56:39Z</time>
      </trkpt>
      <trkpt lat="48.74615" lon="7.1822">
        <ele>328.2</ele>
        <time>2024-01-20T13:56:46Z</time>
      </trkpt>
      <trkpt lat="48.74611" lon="7.18247">
        <ele>328.6</ele>
        <time>2024-01-20T13:56:53Z</time>
      </trkpt>
      <trkpt lat="48.74603" lon="7.18273">
        <ele>328.8</ele>
        <time>2024-01-20T13:57:00Z</time>
      </trkpt>
      <trkpt lat="48.74599" lon="7.183">
        <ele>329</ele>
        <time>2024-01-20T13:57:08Z</time>
      </trkpt>
      <trkpt lat="48.74594" lon="7.18329">
        <ele>329.1</ele>
        <time>2024-01-20T13:57:17Z</time>
      </trkpt>
      <trkpt lat="48.7459" lon="7.18357">
        <ele>329</ele>
        <time>2024-01-20T13:57:26Z</time>
      </trkpt>
      <trkpt lat="48.74589" lon="7.18363">
        <ele>329</ele>
        <time>2024-01-20T13:57:27Z</time>
      </trkpt>
      <trkpt lat="48.7459" lon="7.1839">
        <ele>328.8</ele>
        <time>2024-01-20T13:57:35Z</time>
      </trkpt>
      <trkpt lat="48.74589" lon="7.18419">
        <ele>328.9</ele>
        <time>2024-01-20T13:57:43Z</time>
      </trkpt>
      <trkpt lat="48.74598" lon="7.18444">
        <ele>328.7</ele>
        <time>2024-01-20T13:57:49Z</time>
      </trkpt>
      <trkpt lat="48.74607" lon="7.1847">
        <ele>328.8</ele>
        <time>2024-01-20T13:57:55Z</time>
      </trkpt>
      <trkpt lat="48.74616" lon="7.18494">
        <ele>329.4</ele>
        <time>2024-01-20T13:58:01Z</time>
      </trkpt>
      <trkpt lat="48.74613" lon="7.18521">
        <ele>331.1</ele>
        <time>2024-01-20T13:58:09Z</time>
      </trkpt>
      <trkpt lat="48.74598" lon="7.18541">
        <ele>332.6</ele>
        <time>2024-01-20T13:58:15Z</time>
      </trkpt>
      <trkpt lat="48.74592" lon="7.18554">
        <ele>333.7</ele>
        <time>2024-01-20T13:58:23Z</time>
      </trkpt>
      <trkpt lat="48.74602" lon="7.18561">
        <ele>333.6</ele>
        <time>2024-01-20T13:59:05Z</time>
      </trkpt>
      <trkpt lat="48.74618" lon="7.18578">
        <ele>333.2</ele>
        <time>2024-01-20T13:59:13Z</time>
      </trkpt>
      <trkpt lat="48.74632" lon="7.186">
        <ele>333.2</ele>
        <time>2024-01-20T13:59:19Z</time>
      </trkpt>
      <trkpt lat="48.74649" lon="7.18614">
        <ele>333.2</ele>
        <time>2024-01-20T13:59:25Z</time>
      </trkpt>
      <trkpt lat="48.74668" lon="7.18631">
        <ele>332.5</ele>
        <time>2024-01-20T13:59:31Z</time>
      </trkpt>
      <trkpt lat="48.74684" lon="7.18649">
        <ele>331.3</ele>
        <time>2024-01-20T13:59:36Z</time>
      </trkpt>
      <trkpt lat="48.74701" lon="7.18666">
        <ele>330.1</ele>
        <time>2024-01-20T13:59:42Z</time>
      </trkpt>
      <trkpt lat="48.74711" lon="7.18689">
        <ele>329.4</ele>
        <time>2024-01-20T13:59:47Z</time>
      </trkpt>
      <trkpt lat="48.74719" lon="7.18702">
        <ele>329.3</ele>
        <time>2024-01-20T13:59:50Z</time>
      </trkpt>
      <trkpt lat="48.74736" lon="7.18714">
        <ele>327.8</ele>
        <time>2024-01-20T13:59:56Z</time>
      </trkpt>
      <trkpt lat="48.74749" lon="7.18724">
        <ele>326.8</ele>
        <time>2024-01-20T14:00:04Z</time>
      </trkpt>
      <trkpt lat="48.74754" lon="7.18724">
        <ele>326.4</ele>
        <time>2024-01-20T14:00:07Z</time>
      </trkpt>
      <trkpt lat="48.74756" lon="7.18731">
        <ele>326.7</ele>
        <time>2024-01-20T14:00:12Z</time>
      </trkpt>
      <trkpt lat="48.74759" lon="7.18734">
        <ele>326.6</ele>
        <time>2024-01-20T14:00:15Z</time>
      </trkpt>
      <trkpt lat="48.74762" lon="7.18735">
        <ele>326.5</ele>
        <time>2024-01-20T14:00:17Z</time>
      </trkpt>
      <trkpt lat="48.7477" lon="7.18733">
        <ele>325.9</ele>
        <time>2024-01-20T14:00:24Z</time>
      </trkpt>
      <trkpt lat="48.74786" lon="7.18719">
        <ele>325</ele>
        <time>2024-01-20T14:00:32Z</time>
      </trkpt>
      <trkpt lat="48.74788" lon="7.18733">
        <ele>325.3</ele>
        <time>2024-01-20T14:00:54Z</time>
      </trkpt>
      <trkpt lat="48.74771" lon="7.18747">
        <ele>326.7</ele>
        <time>2024-01-20T14:01:02Z</time>
      </trkpt>
      <trkpt lat="48.74755" lon="7.18763">
        <ele>328.7</ele>
        <time>2024-01-20T14:01:08Z</time>
      </trkpt>
      <trkpt lat="48.74741" lon="7.18779">
        <ele>330.8</ele>
        <time>2024-01-20T14:01:13Z</time>
      </trkpt>
      <trkpt lat="48.74725" lon="7.18794">
        <ele>332.4</ele>
        <time>2024-01-20T14:01:20Z</time>
      </trkpt>
      <trkpt lat="48.74706" lon="7.18803">
        <ele>334.4</ele>
        <time>2024-01-20T14:01:27Z</time>
      </trkpt>
      <trkpt lat="48.74685" lon="7.18803">
        <ele>336.8</ele>
        <time>2024-01-20T14:01:36Z</time>
      </trkpt>
      <trkpt lat="48.74668" lon="7.18812">
        <ele>338.9</ele>
        <time>2024-01-20T14:01:43Z</time>
      </trkpt>
      <trkpt lat="48.74651" lon="7.18822">
        <ele>341.1</ele>
        <time>2024-01-20T14:01:52Z</time>
      </trkpt>
      <trkpt lat="48.74632" lon="7.1883">
        <ele>343.2</ele>
        <time>2024-01-20T14:02:00Z</time>
      </trkpt>
      <trkpt lat="48.74615" lon="7.18838">
        <ele>345.1</ele>
        <time>2024-01-20T14:02:07Z</time>
      </trkpt>
      <trkpt lat="48.74594" lon="7.18847">
        <ele>346.8</ele>
        <time>2024-01-20T14:02:13Z</time>
      </trkpt>
      <trkpt lat="48.74577" lon="7.18858">
        <ele>347.9</ele>
        <time>2024-01-20T14:02:21Z</time>
      </trkpt>
      <trkpt lat="48.74562" lon="7.18879">
        <ele>349</ele>
        <time>2024-01-20T14:02:28Z</time>
      </trkpt>
      <trkpt lat="48.74552" lon="7.18904">
        <ele>349.5</ele>
        <time>2024-01-20T14:02:34Z</time>
      </trkpt>
      <trkpt lat="48.7454" lon="7.18926">
        <ele>349.8</ele>
        <time>2024-01-20T14:02:40Z</time>
      </trkpt>
      <trkpt lat="48.74529" lon="7.1895">
        <ele>350.4</ele>
        <time>2024-01-20T14:02:46Z</time>
      </trkpt>
      <trkpt lat="48.74518" lon="7.18964">
        <ele>351.1</ele>
        <time>2024-01-20T14:02:53Z</time>
      </trkpt>
      <trkpt lat="48.74517" lon="7.18966">
        <ele>351</ele>
        <time>2024-01-20T14:02:55Z</time>
      </trkpt>
      <trkpt lat="48.74516" lon="7.18969">
        <ele>351</ele>
        <time>2024-01-20T14:02:58Z</time>
      </trkpt>
      <trkpt lat="48.74511" lon="7.18968">
        <ele>351.4</ele>
        <time>2024-01-20T14:03:03Z</time>
      </trkpt>
      <trkpt lat="48.7451" lon="7.18969">
        <ele>351.4</ele>
        <time>2024-01-20T14:03:06Z</time>
      </trkpt>
      <trkpt lat="48.74503" lon="7.18968">
        <ele>351.9</ele>
        <time>2024-01-20T14:04:02Z</time>
      </trkpt>
      <trkpt lat="48.745" lon="7.18966">
        <ele>352</ele>
        <time>2024-01-20T14:04:04Z</time>
      </trkpt>
      <trkpt lat="48.74503" lon="7.18964">
        <ele>351.9</ele>
        <time>2024-01-20T14:10:01Z</time>
      </trkpt>
      <trkpt lat="48.74492" lon="7.18943">
        <ele>352.5</ele>
        <time>2024-01-20T14:10:09Z</time>
      </trkpt>
      <trkpt lat="48.74484" lon="7.18915">
        <ele>352.8</ele>
        <time>2024-01-20T14:10:16Z</time>
      </trkpt>
      <trkpt lat="48.74474" lon="7.18889">
        <ele>352.8</ele>
        <time>2024-01-20T14:10:23Z</time>
      </trkpt>
      <trkpt lat="48.74466" lon="7.18864">
        <ele>352.1</ele>
        <time>2024-01-20T14:10:29Z</time>
      </trkpt>
      <trkpt lat="48.74454" lon="7.18838">
        <ele>351.2</ele>
        <time>2024-01-20T14:10:36Z</time>
      </trkpt>
      <trkpt lat="48.74445" lon="7.18814">
        <ele>350</ele>
        <time>2024-01-20T14:10:41Z</time>
      </trkpt>
      <trkpt lat="48.74437" lon="7.18786">
        <ele>348.6</ele>
        <time>2024-01-20T14:10:47Z</time>
      </trkpt>
      <trkpt lat="48.74427" lon="7.18758">
        <ele>346.3</ele>
        <time>2024-01-20T14:10:53Z</time>
      </trkpt>
      <trkpt lat="48.74418" lon="7.18729">
        <ele>345.2</ele>
        <time>2024-01-20T14:10:59Z</time>
      </trkpt>
      <trkpt lat="48.74407" lon="7.18705">
        <ele>346.3</ele>
        <time>2024-01-20T14:11:05Z</time>
      </trkpt>
      <trkpt lat="48.74392" lon="7.1869">
        <ele>347.3</ele>
        <time>2024-01-20T14:11:13Z</time>
      </trkpt>
      <trkpt lat="48.74389" lon="7.1869">
        <ele>347.4</ele>
        <time>2024-01-20T14:11:14Z</time>
      </trkpt>
      <trkpt lat="48.74372" lon="7.18706">
        <ele>348.9</ele>
        <time>2024-01-20T14:11:27Z</time>
      </trkpt>
      <trkpt lat="48.74354" lon="7.18716">
        <ele>350.4</ele>
        <time>2024-01-20T14:11:36Z</time>
      </trkpt>
      <trkpt lat="48.74336" lon="7.18724">
        <ele>351.1</ele>
        <time>2024-01-20T14:11:43Z</time>
      </trkpt>
      <trkpt lat="48.74318" lon="7.18733">
        <ele>351.1</ele>
        <time>2024-01-20T14:11:50Z</time>
      </trkpt>
      <trkpt lat="48.74298" lon="7.18739">
        <ele>350.9</ele>
        <time>2024-01-20T14:11:58Z</time>
      </trkpt>
      <trkpt lat="48.7428" lon="7.18747">
        <ele>350.6</ele>
        <time>2024-01-20T14:12:04Z</time>
      </trkpt>
      <trkpt lat="48.74261" lon="7.18757">
        <ele>350.2</ele>
        <time>2024-01-20T14:12:11Z</time>
      </trkpt>
      <trkpt lat="48.74245" lon="7.1877">
        <ele>350</ele>
        <time>2024-01-20T14:12:17Z</time>
      </trkpt>
      <trkpt lat="48.7424" lon="7.18771">
        <ele>349.8</ele>
        <time>2024-01-20T14:12:19Z</time>
      </trkpt>
      <trkpt lat="48.74222" lon="7.18754">
        <ele>348.9</ele>
        <time>2024-01-20T14:12:25Z</time>
      </trkpt>
      <trkpt lat="48.74208" lon="7.18732">
        <ele>347.9</ele>
        <time>2024-01-20T14:12:30Z</time>
      </trkpt>
      <trkpt lat="48.74191" lon="7.18713">
        <ele>347.1</ele>
        <time>2024-01-20T14:12:35Z</time>
      </trkpt>
      <trkpt lat="48.74174" lon="7.18693">
        <ele>346.5</ele>
        <time>2024-01-20T14:12:40Z</time>
      </trkpt>
      <trkpt lat="48.74179" lon="7.18666">
        <ele>346</ele>
        <time>2024-01-20T14:12:46Z</time>
      </trkpt>
      <trkpt lat="48.74187" lon="7.18639">
        <ele>345.6</ele>
        <time>2024-01-20T14:12:52Z</time>
      </trkpt>
      <trkpt lat="48.74196" lon="7.18613">
        <ele>345</ele>
        <time>2024-01-20T14:12:56Z</time>
      </trkpt>
      <trkpt lat="48.74206" lon="7.18587">
        <ele>344.4</ele>
        <time>2024-01-20T14:13:00Z</time>
      </trkpt>
      <trkpt lat="48.74217" lon="7.1856">
        <ele>343.7</ele>
        <time>2024-01-20T14:13:04Z</time>
      </trkpt>
      <trkpt lat="48.74229" lon="7.18534">
        <ele>343.1</ele>
        <time>2024-01-20T14:13:08Z</time>
      </trkpt>
      <trkpt lat="48.74242" lon="7.18509">
        <ele>342.1</ele>
        <time>2024-01-20T14:13:12Z</time>
      </trkpt>
      <trkpt lat="48.74257" lon="7.18484">
        <ele>341.2</ele>
        <time>2024-01-20T14:13:16Z</time>
      </trkpt>
      <trkpt lat="48.74269" lon="7.18463">
        <ele>340.5</ele>
        <time>2024-01-20T14:13:20Z</time>
      </trkpt>
      <trkpt lat="48.74283" lon="7.18439">
        <ele>339.7</ele>
        <time>2024-01-20T14:13:26Z</time>
      </trkpt>
      <trkpt lat="48.74296" lon="7.18418">
        <ele>338.8</ele>
        <time>2024-01-20T14:13:32Z</time>
      </trkpt>
      <trkpt lat="48.7431" lon="7.18399">
        <ele>338.1</ele>
        <time>2024-01-20T14:13:38Z</time>
      </trkpt>
      <trkpt lat="48.74318" lon="7.18389">
        <ele>337.7</ele>
        <time>2024-01-20T14:13:42Z</time>
      </trkpt>
      <trkpt lat="48.74327" lon="7.18416">
        <ele>337.8</ele>
        <time>2024-01-20T14:13:50Z</time>
      </trkpt>
      <trkpt lat="48.74336" lon="7.1844">
        <ele>337.6</ele>
        <time>2024-01-20T14:13:54Z</time>
      </trkpt>
      <trkpt lat="48.74347" lon="7.18463">
        <ele>337.3</ele>
        <time>2024-01-20T14:13:58Z</time>
      </trkpt>
      <trkpt lat="48.74354" lon="7.18472">
        <ele>337.4</ele>
        <time>2024-01-20T14:14:00Z</time>
      </trkpt>
      <trkpt lat="48.74365" lon="7.18492">
        <ele>337.3</ele>
        <time>2024-01-20T14:14:04Z</time>
      </trkpt>
      <trkpt lat="48.74367" lon="7.18504">
        <ele>337.6</ele>
        <time>2024-01-20T14:14:06Z</time>
      </trkpt>
      <trkpt lat="48.74376" lon="7.18529">
        <ele>338.2</ele>
        <time>2024-01-20T14:14:10Z</time>
      </trkpt>
      <trkpt lat="48.74384" lon="7.18555">
        <ele>338.7</ele>
        <time>2024-01-20T14:14:14Z</time>
      </trkpt>
      <trkpt lat="48.74392" lon="7.18582">
        <ele>339.4</ele>
        <time>2024-01-20T14:14:18Z</time>
      </trkpt>
      <trkpt lat="48.74395" lon="7.186">
        <ele>340.2</ele>
        <time>2024-01-20T14:14:21Z</time>
      </trkpt>
      <trkpt lat="48.74398" lon="7.18612">
        <ele>341</ele>
        <time>2024-01-20T14:14:24Z</time>
      </trkpt>
      <trkpt lat="48.74405" lon="7.18642">
        <ele>343.5</ele>
        <time>2024-01-20T14:14:33Z</time>
      </trkpt>
      <trkpt lat="48.74412" lon="7.18667">
        <ele>345.9</ele>
        <time>2024-01-20T14:14:40Z</time>
      </trkpt>
      <trkpt lat="48.7442" lon="7.18693">
        <ele>345.7</ele>
        <time>2024-01-20T14:14:47Z</time>
      </trkpt>
      <trkpt lat="48.74429" lon="7.18716">
        <ele>344.8</ele>
        <time>2024-01-20T14:14:54Z</time>
      </trkpt>
      <trkpt lat="48.74449" lon="7.18718">
        <ele>344</ele>
        <time>2024-01-20T14:15:01Z</time>
      </trkpt>
      <trkpt lat="48.74468" lon="7.18719">
        <ele>343.8</ele>
        <time>2024-01-20T14:15:06Z</time>
      </trkpt>
      <trkpt lat="48.74486" lon="7.18716">
        <ele>343.8</ele>
        <time>2024-01-20T14:15:10Z</time>
      </trkpt>
      <trkpt lat="48.74507" lon="7.18713">
        <ele>344.5</ele>
        <time>2024-01-20T14:15:14Z</time>
      </trkpt>
      <trkpt lat="48.74512" lon="7.18715">
        <ele>344.6</ele>
        <time>2024-01-20T14:15:15Z</time>
      </trkpt>
      <trkpt lat="48.74529" lon="7.18726">
        <ele>345.8</ele>
        <time>2024-01-20T14:15:19Z</time>
      </trkpt>
      <trkpt lat="48.74535" lon="7.18733">
        <ele>346</ele>
        <time>2024-01-20T14:15:21Z</time>
      </trkpt>
      <trkpt lat="48.74551" lon="7.18749">
        <ele>346.6</ele>
        <time>2024-01-20T14:15:25Z</time>
      </trkpt>
      <trkpt lat="48.74565" lon="7.1877">
        <ele>346.7</ele>
        <time>2024-01-20T14:15:30Z</time>
      </trkpt>
      <trkpt lat="48.74567" lon="7.18776">
        <ele>346.7</ele>
        <time>2024-01-20T14:15:31Z</time>
      </trkpt>
      <trkpt lat="48.74568" lon="7.18787">
        <ele>346.9</ele>
        <time>2024-01-20T14:15:33Z</time>
      </trkpt>
      <trkpt lat="48.74568" lon="7.18817">
        <ele>347.6</ele>
        <time>2024-01-20T14:15:40Z</time>
      </trkpt>
      <trkpt lat="48.74565" lon="7.18844">
        <ele>348.3</ele>
        <time>2024-01-20T14:15:48Z</time>
      </trkpt>
      <trkpt lat="48.74565" lon="7.18872">
        <ele>349.3</ele>
        <time>2024-01-20T14:15:56Z</time>
      </trkpt>
      <trkpt lat="48.7456" lon="7.189">
        <ele>349.7</ele>
        <time>2024-01-20T14:16:04Z</time>
      </trkpt>
      <trkpt lat="48.74558" lon="7.18909">
        <ele>349.6</ele>
        <time>2024-01-20T14:16:07Z</time>
      </trkpt>
      <trkpt lat="48.74541" lon="7.18927">
        <ele>350.2</ele>
        <time>2024-01-20T14:16:14Z</time>
      </trkpt>
      <trkpt lat="48.74523" lon="7.18943">
        <ele>351.5</ele>
        <time>2024-01-20T14:16:19Z</time>
      </trkpt>
      <trkpt lat="48.7451" lon="7.18947">
        <ele>352.2</ele>
        <time>2024-01-20T14:16:23Z</time>
      </trkpt>
      <trkpt lat="48.74505" lon="7.18941">
        <ele>352.5</ele>
        <time>2024-01-20T14:16:25Z</time>
      </trkpt>
      <trkpt lat="48.7449" lon="7.18922">
        <ele>353.1</ele>
        <time>2024-01-20T14:16:29Z</time>
      </trkpt>
      <trkpt lat="48.74488" lon="7.18918">
        <ele>353.2</ele>
        <time>2024-01-20T14:16:30Z</time>
      </trkpt>
      <trkpt lat="48.74481" lon="7.18912">
        <ele>353.5</ele>
        <time>2024-01-20T14:16:34Z</time>
      </trkpt>
      <trkpt lat="48.7448" lon="7.18916">
        <ele>353.5</ele>
        <time>2024-01-20T14:16:36Z</time>
      </trkpt>
      <trkpt lat="48.74492" lon="7.18937">
        <ele>353.1</ele>
        <time>2024-01-20T14:16:44Z</time>
      </trkpt>
      <trkpt lat="48.74503" lon="7.18961">
        <ele>352.5</ele>
        <time>2024-01-20T14:16:52Z</time>
      </trkpt>
      <trkpt lat="48.74508" lon="7.1897">
        <ele>352.1</ele>
        <time>2024-01-20T14:16:57Z</time>
      </trkpt>
      <trkpt lat="48.74508" lon="7.1897">
        <ele>352.1</ele>
        <time>2024-01-20T14:34:04Z</time>
      </trkpt>
      <trkpt lat="48.74394" lon="7.18904">
        <ele>355.1</ele>
        <time>2024-01-20T14:34:10Z</time>
      </trkpt>
      <trkpt lat="48.74336" lon="7.1888">
        <ele>356.4</ele>
        <time>2024-01-20T14:34:13Z</time>
      </trkpt>
      <trkpt lat="48.74302" lon="7.18868">
        <ele>354.6</ele>
        <time>2024-01-20T14:34:15Z</time>
      </trkpt>
      <trkpt lat="48.74272" lon="7.18861">
        <ele>351.4</ele>
        <time>2024-01-20T14:34:17Z</time>
      </trkpt>
      <trkpt lat="48.74238" lon="7.18855">
        <ele>349.2</ele>
        <time>2024-01-20T14:34:19Z</time>
      </trkpt>
      <trkpt lat="48.74211" lon="7.18846">
        <ele>348.2</ele>
        <time>2024-01-20T14:34:21Z</time>
      </trkpt>
      <trkpt lat="48.74192" lon="7.18843">
        <ele>347.7</ele>
        <time>2024-01-20T14:34:22Z</time>
      </trkpt>
      <trkpt lat="48.74169" lon="7.18835">
        <ele>347.2</ele>
        <time>2024-01-20T14:34:24Z</time>
      </trkpt>
      <trkpt lat="48.7413" lon="7.18828">
        <ele>346.3</ele>
        <time>2024-01-20T14:34:26Z</time>
      </trkpt>
      <trkpt lat="48.74112" lon="7.18813">
        <ele>346.3</ele>
        <time>2024-01-20T14:34:29Z</time>
      </trkpt>
      <trkpt lat="48.74084" lon="7.18802">
        <ele>345.8</ele>
        <time>2024-01-20T14:34:31Z</time>
      </trkpt>
      <trkpt lat="48.7406" lon="7.18799">
        <ele>345.5</ele>
        <time>2024-01-20T14:34:32Z</time>
      </trkpt>
      <trkpt lat="48.74036" lon="7.18795">
        <ele>345.4</ele>
        <time>2024-01-20T14:34:33Z</time>
      </trkpt>
      <trkpt lat="48.74013" lon="7.18793">
        <ele>345.3</ele>
        <time>2024-01-20T14:34:34Z</time>
      </trkpt>
      <trkpt lat="48.7399" lon="7.18789">
        <ele>345.2</ele>
        <time>2024-01-20T14:34:35Z</time>
      </trkpt>
      <trkpt lat="48.73968" lon="7.18786">
        <ele>344.7</ele>
        <time>2024-01-20T14:34:36Z</time>
      </trkpt>
      <trkpt lat="48.73946" lon="7.18783">
        <ele>343.9</ele>
        <time>2024-01-20T14:34:37Z</time>
      </trkpt>
      <trkpt lat="48.73924" lon="7.1878">
        <ele>343</ele>
        <time>2024-01-20T14:34:38Z</time>
      </trkpt>
      <trkpt lat="48.73902" lon="7.18777">
        <ele>341.5</ele>
        <time>2024-01-20T14:34:39Z</time>
      </trkpt>
      <trkpt lat="48.73878" lon="7.18774">
        <ele>339.6</ele>
        <time>2024-01-20T14:34:40Z</time>
      </trkpt>
      <trkpt lat="48.73855" lon="7.18772">
        <ele>338.5</ele>
        <time>2024-01-20T14:34:41Z</time>
      </trkpt>
      <trkpt lat="48.73832" lon="7.18769">
        <ele>337.6</ele>
        <time>2024-01-20T14:34:42Z</time>
      </trkpt>
      <trkpt lat="48.73808" lon="7.18767">
        <ele>336.7</ele>
        <time>2024-01-20T14:34:43Z</time>
      </trkpt>
      <trkpt lat="48.73817" lon="7.18758">
        <ele>336.9</ele>
        <time>2024-01-20T14:34:45Z</time>
      </trkpt>
      <trkpt lat="48.73794" lon="7.18755">
        <ele>336.2</ele>
        <time>2024-01-20T14:34:46Z</time>
      </trkpt>
      <trkpt lat="48.73678" lon="7.18739">
        <ele>331.1</ele>
        <time>2024-01-20T14:34:51Z</time>
      </trkpt>
      <trkpt lat="48.73656" lon="7.18733">
        <ele>330.1</ele>
        <time>2024-01-20T14:34:52Z</time>
      </trkpt>
      <trkpt lat="48.73634" lon="7.18728">
        <ele>329.3</ele>
        <time>2024-01-20T14:34:53Z</time>
      </trkpt>
      <trkpt lat="48.73611" lon="7.18721">
        <ele>328.5</ele>
        <time>2024-01-20T14:34:54Z</time>
      </trkpt>
      <trkpt lat="48.73588" lon="7.18715">
        <ele>327.8</ele>
        <time>2024-01-20T14:34:55Z</time>
      </trkpt>
      <trkpt lat="48.73566" lon="7.1871">
        <ele>327</ele>
        <time>2024-01-20T14:34:56Z</time>
      </trkpt>
      <trkpt lat="48.73544" lon="7.18705">
        <ele>325.8</ele>
        <time>2024-01-20T14:34:57Z</time>
      </trkpt>
      <trkpt lat="48.73521" lon="7.187">
        <ele>324.9</ele>
        <time>2024-01-20T14:34:58Z</time>
      </trkpt>
      <trkpt lat="48.73498" lon="7.18697">
        <ele>323.6</ele>
        <time>2024-01-20T14:34:59Z</time>
      </trkpt>
      <trkpt lat="48.73477" lon="7.1869">
        <ele>322.2</ele>
        <time>2024-01-20T14:35:00Z</time>
      </trkpt>
      <trkpt lat="48.73457" lon="7.18676">
        <ele>320.5</ele>
        <time>2024-01-20T14:35:01Z</time>
      </trkpt>
      <trkpt lat="48.73436" lon="7.18669">
        <ele>318.8</ele>
        <time>2024-01-20T14:35:02Z</time>
      </trkpt>
      <trkpt lat="48.7341" lon="7.18672">
        <ele>317.3</ele>
        <time>2024-01-20T14:35:03Z</time>
      </trkpt>
      <trkpt lat="48.73385" lon="7.18671">
        <ele>314</ele>
        <time>2024-01-20T14:35:04Z</time>
      </trkpt>
      <trkpt lat="48.73363" lon="7.18668">
        <ele>309.7</ele>
        <time>2024-01-20T14:35:05Z</time>
      </trkpt>
      <trkpt lat="48.73342" lon="7.1866">
        <ele>305.3</ele>
        <time>2024-01-20T14:35:06Z</time>
      </trkpt>
      <trkpt lat="48.73322" lon="7.18653">
        <ele>301.1</ele>
        <time>2024-01-20T14:35:07Z</time>
      </trkpt>
      <trkpt lat="48.73301" lon="7.18649">
        <ele>295.4</ele>
        <time>2024-01-20T14:35:08Z</time>
      </trkpt>
      <trkpt lat="48.73236" lon="7.18634">
        <ele>283.3</ele>
        <time>2024-01-20T14:35:11Z</time>
      </trkpt>
      <trkpt lat="48.73214" lon="7.1863">
        <ele>280.7</ele>
        <time>2024-01-20T14:35:12Z</time>
      </trkpt>
      <trkpt lat="48.73033" lon="7.18598">
        <ele>285.5</ele>
        <time>2024-01-20T14:35:20Z</time>
      </trkpt>
      <trkpt lat="48.72993" lon="7.18587">
        <ele>289.5</ele>
        <time>2024-01-20T14:35:22Z</time>
      </trkpt>
      <trkpt lat="48.72854" lon="7.18534">
        <ele>306.7</ele>
        <time>2024-01-20T14:35:29Z</time>
      </trkpt>
      <trkpt lat="48.72854" lon="7.18534">
        <ele>306.7</ele>
        <time>2024-01-20T14:35:36Z</time>
      </trkpt>
      <trkpt lat="48.72854" lon="7.18534">
        <ele>306.7</ele>
        <time>2024-01-20T14:35:42Z</time>
      </trkpt>
      <trkpt lat="48.72854" lon="7.18534">
        <ele>306.7</ele>
        <time>2024-01-20T14:35:48Z</time>
      </trkpt>
      <trkpt lat="48.72854" lon="7.18534">
        <ele>306.7</ele>
        <time>2024-01-20T14:35:54Z</time>
      </trkpt>
      <trkpt lat="48.72854" lon="7.18534">
        <ele>306.7</ele>
        <time>2024-01-20T14:36:00Z</time>
      </trkpt>
      <trkpt lat="48.72854" lon="7.18534">
        <ele>306.7</ele>
        <time>2024-01-20T14:36:06Z</time>
      </trkpt>
      <trkpt lat="48.72854" lon="7.18534">
        <ele>306.7</ele>
        <time>2024-01-20T14:36:12Z</time>
      </trkpt>
      <trkpt lat="48.72854" lon="7.18534">
        <ele>306.7</ele>
        <time>2024-01-20T14:36:17Z</time>
      </trkpt>
      <trkpt lat="48.72854" lon="7.18534">
        <ele>306.7</ele>
        <time>2024-01-20T14:36:52Z</time>
      </trkpt>
      <trkpt lat="48.72854" lon="7.18534">
        <ele>306.7</ele>
        <time>2024-01-20T14:37:02Z</time>
      </trkpt>
      <trkpt lat="48.72854" lon="7.18534">
        <ele>306.7</ele>
        <time>2024-01-20T14:37:10Z</time>
      </trkpt>
      <trkpt lat="48.72854" lon="7.18534">
        <ele>306.7</ele>
        <time>2024-01-20T14:37:17Z</time>
      </trkpt>
      <trkpt lat="48.72854" lon="7.18534">
        <ele>306.7</ele>
        <time>2024-01-20T14:37:24Z</time>
      </trkpt>
      <trkpt lat="48.72854" lon="7.18534">
        <ele>306.7</ele>
        <time>2024-01-20T14:37:32Z</time>
      </trkpt>
      <trkpt lat="48.72854" lon="7.18534">
        <ele>306.7</ele>
        <time>2024-01-20T14:37:41Z</time>
      </trkpt>
      <trkpt lat="48.72854" lon="7.18534">
        <ele>306.7</ele>
        <time>2024-01-20T14:37:49Z</time>
      </trkpt>
      <trkpt lat="48.72854" lon="7.18534">
        <ele>306.7</ele>
        <time>2024-01-20T14:37:56Z</time>
      </trkpt>
      <trkpt lat="48.72854" lon="7.18534">
        <ele>306.7</ele>
        <time>2024-01-20T14:38:03Z</time>
      </trkpt>
      <trkpt lat="48.72854" lon="7.18534">
        <ele>306.7</ele>
        <time>2024-01-20T14:38:10Z</time>
      </trkpt>
      <trkpt lat="48.72854" lon="7.18534">
        <ele>306.7</ele>
        <time>2024-01-20T14:38:17Z</time>
      </trkpt>
      <trkpt lat="48.72854" lon="7.18534">
        <ele>306.7</ele>
        <time>2024-01-20T14:38:24Z</time>
      </trkpt>
      <trkpt lat="48.72854" lon="7.18534">
        <ele>306.7</ele>
        <time>2024-01-20T14:38:31Z</time>
      </trkpt>
      <trkpt lat="48.72854" lon="7.18534">
        <ele>306.7</ele>
        <time>2024-01-20T14:38:38Z</time>
      </trkpt>
      <trkpt lat="48.72854" lon="7.18534">
        <ele>306.7</ele>
        <time>2024-01-20T14:38:45Z</time>
      </trkpt>
      <trkpt lat="48.72854" lon="7.18534">
        <ele>306.7</ele>
        <time>2024-01-20T14:38:52Z</time>
      </trkpt>
      <trkpt lat="48.72854" lon="7.18534">
        <ele>306.7</ele>
        <time>2024-01-20T14:38:59Z</time>
      </trkpt>
      <trkpt lat="48.72854" lon="7.18534">
        <ele>306.7</ele>
        <time>2024-01-20T14:39:06Z</time>
      </trkpt>
      <trkpt lat="48.72854" lon="7.18534">
        <ele>306.7</ele>
        <time>2024-01-20T14:39:13Z</time>
      </trkpt>
      <trkpt lat="48.72854" lon="7.18534">
        <ele>306.7</ele>
        <time>2024-01-20T14:39:20Z</time>
      </trkpt>
      <trkpt lat="48.72854" lon="7.18534">
        <ele>306.7</ele>
        <time>2024-01-20T14:39:27Z</time>
      </trkpt>
      <trkpt lat="48.72854" lon="7.18534">
        <ele>306.7</ele>
        <time>2024-01-20T14:39:34Z</time>
      </trkpt>
      <trkpt lat="48.72854" lon="7.18534">
        <ele>306.7</ele>
        <time>2024-01-20T14:39:41Z</time>
      </trkpt>
      <trkpt lat="48.72854" lon="7.18534">
        <ele>306.7</ele>
        <time>2024-01-20T14:39:49Z</time>
      </trkpt>
      <trkpt lat="48.72854" lon="7.18534">
        <ele>306.7</ele>
        <time>2024-01-20T14:39:57Z</time>
      </trkpt>
      <trkpt lat="48.72854" lon="7.18534">
        <ele>306.7</ele>
        <time>2024-01-20T14:40:05Z</time>
      </trkpt>
      <trkpt lat="48.72854" lon="7.18534">
        <ele>306.7</ele>
        <time>2024-01-20T14:40:13Z</time>
      </trkpt>
      <trkpt lat="48.72854" lon="7.18534">
        <ele>306.7</ele>
        <time>2024-01-20T14:40:21Z</time>
      </trkpt>
      <trkpt lat="48.72854" lon="7.18534">
        <ele>306.7</ele>
        <time>2024-01-20T14:40:29Z</time>
      </trkpt>
      <trkpt lat="48.72854" lon="7.18534">
        <ele>306.7</ele>
        <time>2024-01-20T14:40:38Z</time>
      </trkpt>
      <trkpt lat="48.72854" lon="7.18534">
        <ele>306.7</ele>
        <time>2024-01-20T14:40:49Z</time>
      </trkpt>
      <trkpt lat="48.72854" lon="7.18534">
        <ele>306.7</ele>
        <time>2024-01-20T14:40:58Z</time>
      </trkpt>
      <trkpt lat="48.72854" lon="7.18534">
        <ele>306.7</ele>
        <time>2024-01-20T14:41:07Z</time>
      </trkpt>
      <trkpt lat="48.72854" lon="7.18534">
        <ele>306.7</ele>
        <time>2024-01-20T14:41:15Z</time>
      </trkpt>
      <trkpt lat="48.72854" lon="7.18534">
        <ele>306.7</ele>
        <time>2024-01-20T14:41:23Z</time>
      </trkpt>
      <trkpt lat="48.72854" lon="7.18534">
        <ele>306.7</ele>
        <time>2024-01-20T14:41:32Z</time>
      </trkpt>
      <trkpt lat="48.72854" lon="7.18534">
        <ele>306.7</ele>
        <time>2024-01-20T14:41:41Z</time>
      </trkpt>
      <trkpt lat="48.72854" lon="7.18534">
        <ele>306.7</ele>
        <time>2024-01-20T14:41:50Z</time>
      </trkpt>
      <trkpt lat="48.72854" lon="7.18534">
        <ele>306.7</ele>
        <time>2024-01-20T14:41:59Z</time>
      </trkpt>
      <trkpt lat="48.72854" lon="7.18534">
        <ele>306.7</ele>
        <time>2024-01-20T14:42:07Z</time>
      </trkpt>
      <trkpt lat="48.72854" lon="7.18534">
        <ele>306.7</ele>
        <time>2024-01-20T14:42:16Z</time>
      </trkpt>
      <trkpt lat="48.72854" lon="7.18534">
        <ele>306.7</ele>
        <time>2024-01-20T14:42:25Z</time>
      </trkpt>
      <trkpt lat="48.72854" lon="7.18534">
        <ele>306.7</ele>
        <time>2024-01-20T14:42:33Z</time>
      </trkpt>
      <trkpt lat="48.72854" lon="7.18534">
        <ele>306.7</ele>
        <time>2024-01-20T14:42:41Z</time>
      </trkpt>
      <trkpt lat="48.72854" lon="7.18534">
        <ele>306.7</ele>
        <time>2024-01-20T14:42:49Z</time>
      </trkpt>
      <trkpt lat="48.72854" lon="7.18534">
        <ele>306.7</ele>
        <time>2024-01-20T14:42:57Z</time>
      </trkpt>
      <trkpt lat="48.72854" lon="7.18534">
        <ele>306.7</ele>
        <time>2024-01-20T14:43:05Z</time>
      </trkpt>
      <trkpt lat="48.72854" lon="7.18534">
        <ele>306.7</ele>
        <time>2024-01-20T14:43:13Z</time>
      </trkpt>
      <trkpt lat="48.72854" lon="7.18534">
        <ele>306.7</ele>
        <time>2024-01-20T14:43:21Z</time>
      </trkpt>
      <trkpt lat="48.72854" lon="7.18534">
        <ele>306.7</ele>
        <time>2024-01-20T14:43:30Z</time>
      </trkpt>
      <trkpt lat="48.72854" lon="7.18534">
        <ele>306.7</ele>
        <time>2024-01-20T14:43:39Z</time>
      </trkpt>
      <trkpt lat="48.72854" lon="7.18534">
        <ele>306.7</ele>
        <time>2024-01-20T14:43:47Z</time>
      </trkpt>
      <trkpt lat="48.72854" lon="7.18534">
        <ele>306.7</ele>
        <time>2024-01-20T14:43:55Z</time>
      </trkpt>
      <trkpt lat="48.72854" lon="7.18534">
        <ele>306.7</ele>
        <time>2024-01-20T14:44:03Z</time>
      </trkpt>
      <trkpt lat="48.72854" lon="7.18534">
        <ele>306.7</ele>
        <time>2024-01-20T14:44:11Z</time>
      </trkpt>
      <trkpt lat="48.72854" lon="7.18534">
        <ele>306.7</ele>
        <time>2024-01-20T14:44:19Z</time>
      </trkpt>
      <trkpt lat="48.72854" lon="7.18534">
        <ele>306.7</ele>
        <time>2024-01-20T14:44:27Z</time>
      </trkpt>
      <trkpt lat="48.72854" lon="7.18534">
        <ele>306.7</ele>
        <time>2024-01-20T14:44:35Z</time>
      </trkpt>
      <trkpt lat="48.72854" lon="7.18534">
        <ele>306.7</ele>
        <time>2024-01-20T14:44:43Z</time>
      </trkpt>
      <trkpt lat="48.72854" lon="7.18534">
        <ele>306.7</ele>
        <time>2024-01-20T14:44:51Z</time>
      </trkpt>
      <trkpt lat="48.72854" lon="7.18534">
        <ele>306.7</ele>
        <time>2024-01-20T14:44:59Z</time>
      </trkpt>
      <trkpt lat="48.72854" lon="7.18534">
        <ele>306.7</ele>
        <time>2024-01-20T14:45:07Z</time>
      </trkpt>
      <trkpt lat="48.72854" lon="7.18534">
        <ele>306.7</ele>
        <time>2024-01-20T14:45:15Z</time>
      </trkpt>
      <trkpt lat="48.72854" lon="7.18534">
        <ele>306.7</ele>
        <time>2024-01-20T14:45:23Z</time>
      </trkpt>
      <trkpt lat="48.72854" lon="7.18534">
        <ele>306.7</ele>
        <time>2024-01-20T14:45:31Z</time>
      </trkpt>
      <trkpt lat="48.72854" lon="7.18534">
        <ele>306.7</ele>
        <time>2024-01-20T14:45:39Z</time>
      </trkpt>
      <trkpt lat="48.72854" lon="7.18534">
        <ele>306.7</ele>
        <time>2024-01-20T14:45:47Z</time>
      </trkpt>
      <trkpt lat="48.72854" lon="7.18534">
        <ele>306.7</ele>
        <time>2024-01-20T14:45:55Z</time>
      </trkpt>
      <trkpt lat="48.72854" lon="7.18534">
        <ele>306.7</ele>
        <time>2024-01-20T14:46:04Z</time>
      </trkpt>
      <trkpt lat="48.72854" lon="7.18534">
        <ele>306.7</ele>
        <time>2024-01-20T14:46:12Z</time>
      </trkpt>
      <trkpt lat="48.72956" lon="7.1886">
        <ele>291.1</ele>
        <time>2024-01-20T14:46:13Z</time>
      </trkpt>
      <trkpt lat="48.72963" lon="7.18867">
        <ele>291.7</ele>
        <time>2024-01-20T14:46:17Z</time>
      </trkpt>
    </trkseg>
  </trk>
</gpx>